Time;durP1;ratioP1;P1;durP2;ratioP2;P2;SDS_P1;SDS_P2;PMS_P1;PMS_P2;Temp;Humidity;BMP_temperature;BMP_pressure;BME280_temperature;BME280_humidity;BME280_pressure;Samples;Min_cycle;Max_cycle;Signal;HPM_P1;HPM_P2
2022/05/22 00:00:33;;;;;;;7.93;4.90;;;13.90;1.00;;;;;;7370627;19;20097;-60
2022/05/22 00:03:04;;;;;;;8.50;5.32;;;13.90;1.00;;;;;;7367904;19;20010;-61
2022/05/22 00:05:37;;;;;;;7.30;4.97;;;14.00;1.00;;;;;;7391926;19;20448;-60
2022/05/22 00:08:10;;;;;;;9.85;5.30;;;14.10;1.00;;;;;;7371949;19;20015;-61
2022/05/22 00:10:40;;;;;;;7.78;4.78;;;14.20;1.00;;;;;;7367511;19;20011;-61
2022/05/22 00:13:13;;;;;;;6.28;4.30;;;14.20;1.00;;;;;;7368650;19;20010;-60
2022/05/22 00:16:36;;;;;;;7.93;5.00;;;14.20;1.00;;;;;;7367080;19;20025;-61
2022/05/22 00:18:33;;;;;;;7.22;4.60;;;14.00;1.00;;;;;;7367462;19;20014;-61
2022/05/22 00:21:03;;;;;;;8.38;5.18;;;13.90;1.00;;;;;;7362787;19;20028;-61
2022/05/22 00:23:33;;;;;;;6.85;4.93;;;14.00;1.00;;;;;;7392567;19;20491;-61
2022/05/22 00:26:03;;;;;;;6.57;4.60;;;14.00;1.00;;;;;;7370917;19;20006;-61
2022/05/22 00:28:36;;;;;;;7.20;4.68;;;14.00;1.00;;;;;;7371606;19;20026;-61
2022/05/22 00:31:06;;;;;;;7.38;5.35;;;13.90;1.00;;;;;;7362342;19;20097;-61
2022/05/22 00:33:35;;;;;;;6.60;4.88;;;13.70;1.00;;;;;;7370891;19;20032;-61
2022/05/22 00:36:07;;;;;;;5.47;4.40;;;13.50;1.00;;;;;;7368918;19;20014;-60
2022/05/22 00:38:37;;;;;;;5.93;4.60;;;13.50;1.00;;;;;;7391554;19;20352;-61
2022/05/22 00:41:08;;;;;;;5.38;4.55;;;13.50;1.40;;;;;;7362979;19;20010;-61
2022/05/22 00:43:43;;;;;;;7.13;4.88;;;13.40;2.20;;;;;;7369628;19;20027;-60
2022/05/22 00:46:15;;;;;;;10.73;5.07;;;13.40;2.30;;;;;;7371753;19;20098;-60
2022/05/22 00:48:47;;;;;;;6.18;4.30;;;13.40;2.60;;;;;;7371351;19;20043;-60
2022/05/22 00:51:21;;;;;;;8.35;4.32;;;13.30;2.60;;;;;;7363301;19;26766;-60
2022/05/22 00:53:56;;;;;;;6.50;4.43;;;13.20;4.10;;;;;;7390607;19;20014;-60
2022/05/22 00:56:34;;;;;;;4.88;4.32;;;13.20;4.90;;;;;;7371624;19;20032;-60
2022/05/22 00:59:11;;;;;;;8.77;4.93;;;13.20;4.70;;;;;;7366556;19;20069;-60
2022/05/22 01:01:42;;;;;;;4.43;3.92;;;13.20;2.50;;;;;;7363212;19;20010;-62
2022/05/22 01:04:19;;;;;;;4.32;3.85;;;13.30;1.00;;;;;;7368578;19;20082;-62
2022/05/22 01:06:49;;;;;;;6.22;4.13;;;13.30;1.00;;;;;;7370853;19;20041;-61
2022/05/22 01:09:19;;;;;;;7.45;4.20;;;13.40;1.00;;;;;;7371533;19;20008;-61
2022/05/22 01:11:51;;;;;;;4.78;4.15;;;13.50;1.00;;;;;;7384740;19;20010;-61
2022/05/22 01:14:24;;;;;;;8.30;4.20;;;13.60;1.00;;;;;;7368387;19;20083;-61
2022/05/22 01:16:54;;;;;;;7.40;3.90;;;13.60;1.00;;;;;;7369373;19;20040;-60
2022/05/22 01:19:25;;;;;;;7.13;4.20;;;13.60;1.00;;;;;;7370603;19;20082;-60
2022/05/22 01:22:01;;;;;;;8.43;4.20;;;13.60;1.00;;;;;;7362115;19;20494;-60
2022/05/22 01:24:31;;;;;;;5.93;4.35;;;13.50;1.00;;;;;;7369288;19;20093;-60
2022/05/22 01:27:05;;;;;;;4.65;3.72;;;13.60;1.00;;;;;;7368763;19;20405;-61
2022/05/22 01:29:40;;;;;;;4.78;3.65;;;13.60;1.00;;;;;;7391223;19;20022;-61
2022/05/22 01:32:11;;;;;;;4.53;3.90;;;13.50;1.00;;;;;;7362261;19;20018;-60
2022/05/22 01:34:41;;;;;;;4.20;3.78;;;13.50;1.00;;;;;;7368544;19;20010;-61
2022/05/22 01:37:13;;;;;;;7.03;4.20;;;13.40;1.00;;;;;;7369783;19;20468;-60
2022/05/22 01:39:43;;;;;;;4.43;3.72;;;13.40;1.00;;;;;;7368637;19;20418;-60
2022/05/22 01:42:13;;;;;;;6.43;4.00;;;13.30;1.00;;;;;;7360733;19;20014;-61
2022/05/22 01:44:42;;;;;;;5.05;3.83;;;13.20;1.00;;;;;;7390561;19;20010;-61
2022/05/22 01:47:13;;;;;;;6.28;4.15;;;13.20;1.00;;;;;;7369518;19;20003;-61
2022/05/22 01:49:43;;;;;;;6.22;4.53;;;13.20;1.00;;;;;;7369926;19;20006;-61
2022/05/22 01:52:15;;;;;;;4.97;3.72;;;13.10;1.00;;;;;;7361171;19;20010;-61
2022/05/22 01:54:46;;;;;;;7.90;4.30;;;13.10;1.40;;;;;;7368756;19;20022;-61
2022/05/22 01:57:16;;;;;;;9.38;4.63;;;13.20;1.10;;;;;;7369208;19;20034;-60
2022/05/22 01:59:46;;;;;;;6.03;4.45;;;13.20;1.00;;;;;;7389014;19;20378;-60
2022/05/22 02:02:16;;;;;;;7.00;4.80;;;13.20;1.00;;;;;;7360774;19;20014;-60
2022/05/22 02:04:46;;;;;;;6.78;4.72;;;13.10;1.30;;;;;;7367502;19;20097;-60
2022/05/22 02:10:01;;;;;;;6.78;4.85;;;13.20;1.90;;;;;;7367992;19;20002;-60
2022/05/22 02:12:31;;;;;;;7.18;4.80;;;13.20;1.80;;;;;;7359595;19;20020;-60
2022/05/22 02:15:01;;;;;;;6.72;4.78;;;13.20;1.80;;;;;;7366795;19;20065;-61
2022/05/22 02:17:30;;;;;;;6.30;5.40;;;13.00;2.90;;;;;;7389677;19;20042;-61
2022/05/22 02:20:01;;;;;;;6.35;4.95;;;12.90;4.30;;;;;;7367098;19;20082;-60
2022/05/22 02:22:33;;;;;;;8.93;5.68;;;12.90;4.90;;;;;;7358302;19;20196;-60
2022/05/22 02:25:03;;;;;;;8.95;5.80;;;12.90;5.20;;;;;;7367213;19;20015;-60
2022/05/22 02:27:34;;;;;;;6.53;5.38;;;12.90;4.90;;;;;;7368974;19;20032;-60
2022/05/22 02:30:08;;;;;;;6.63;5.40;;;12.90;4.80;;;;;;7367633;19;20014;-61
2022/05/22 02:32:39;;;;;;;8.55;5.60;;;13.10;3.80;;;;;;7380700;19;20015;-61
2022/05/22 02:35:12;;;;;;;8.18;5.43;;;13.10;3.40;;;;;;7365989;19;20090;-61
2022/05/22 02:37:48;;;;;;;7.68;5.30;;;13.00;2.60;;;;;;7368352;19;20006;-61
2022/05/22 02:40:20;;;;;;;8.38;4.80;;;13.00;2.70;;;;;;7366608;19;20090;-61
2022/05/22 02:42:53;;;;;;;6.95;5.25;;;13.10;2.40;;;;;;7360019;19;20515;-61
2022/05/22 02:45:25;;;;;;;7.05;4.80;;;13.10;2.00;;;;;;7366536;19;20022;-61
2022/05/22 02:47:55;;;;;;;5.85;4.88;;;13.10;2.60;;;;;;7387634;19;20022;-61
2022/05/22 02:50:28;;;;;;;7.25;5.05;;;13.20;1.70;;;;;;7359213;19;20507;-61
2022/05/22 02:53:01;;;;;;;6.80;5.40;;;13.10;1.40;;;;;;7351014;19;20010;-61
2022/05/22 02:55:31;;;;;;;6.55;5.15;;;13.10;1.90;;;;;;7356956;19;20062;-61
2022/05/22 02:58:01;;;;;;;7.60;4.80;;;13.00;2.30;;;;;;7364384;19;20024;-61
2022/05/22 03:00:32;;;;;;;7.25;4.85;;;13.00;2.30;;;;;;7363771;19;20014;-61
2022/05/22 03:03:02;;;;;;;6.40;4.90;;;13.00;2.30;;;;;;7362130;19;20019;-61
2022/05/22 03:06:38;;;;;;;7.25;5.70;;;12.80;2.90;;;;;;7386315;19;20073;-61
2022/05/22 03:08:25;;;;;;;8.55;5.70;;;12.90;2.70;;;;;;7365698;19;20156;-61
2022/05/22 03:10:55;;;;;;;8.75;5.65;;;12.80;2.30;;;;;;7358801;19;20491;-61
2022/05/22 03:13:25;;;;;;;6.25;5.50;;;12.80;2.90;;;;;;7365353;19;20003;-61
2022/05/22 03:15:55;;;;;;;6.95;5.22;;;12.80;2.20;;;;;;7365757;19;20094;-61
2022/05/22 03:18:30;;;;;;;6.13;4.95;;;12.90;2.30;;;;;;7364067;19;20108;-62
2022/05/22 03:21:00;;;;;;;6.22;5.05;;;12.70;2.60;;;;;;7354469;19;21085;-61
2022/05/22 03:23:32;;;;;;;7.20;4.85;;;12.70;3.30;;;;;;7386247;19;20089;-61
2022/05/22 03:26:02;;;;;;;5.93;4.97;;;12.50;3.40;;;;;;7365325;19;20023;-61
2022/05/22 03:28:32;;;;;;;6.82;5.35;;;12.40;4.40;;;;;;7365405;19;20089;-61
2022/05/22 03:31:02;;;;;;;7.53;4.55;;;12.50;5.00;;;;;;7357944;19;20015;-61
2022/05/22 03:33:32;;;;;;;5.55;5.05;;;12.40;4.20;;;;;;7364655;19;20471;-61
2022/05/22 03:36:02;;;;;;;5.00;4.50;;;12.50;4.30;;;;;;7364374;19;20014;-61
2022/05/22 03:38:34;;;;;;;5.22;4.72;;;12.50;3.90;;;;;;7386697;19;20007;-61
2022/05/22 03:41:05;;;;;;;6.65;4.32;;;12.50;3.50;;;;;;7356321;19;20853;-61
2022/05/22 03:43:34;;;;;;;7.75;4.45;;;12.60;3.30;;;;;;7363660;19;20014;-61
2022/05/22 03:46:04;;;;;;;6.03;4.80;;;12.80;2.20;;;;;;7365001;19;20431;-61
2022/05/22 03:48:34;;;;;;;4.93;4.03;;;12.50;2.70;;;;;;7365698;19;20014;-61
2022/05/22 03:51:04;;;;;;;6.10;4.70;;;12.50;3.80;;;;;;7357265;19;20027;-61
2022/05/22 03:53:37;;;;;;;4.82;4.20;;;12.90;1.60;;;;;;7384818;19;20101;-61
2022/05/22 03:56:14;;;;;;;6.93;4.95;;;13.70;1.00;;;;;;7364894;19;20090;-60
2022/05/22 03:58:44;;;;;;;8.73;4.30;;;14.10;1.00;;;;;;7364776;19;20014;-61
2022/05/22 04:01:14;;;;;;;5.22;4.10;;;14.30;1.00;;;;;;7357501;19;20032;-61
2022/05/22 04:03:44;;;;;;;5.90;4.00;;;15.10;1.00;;;;;;7363323;19;20014;-61
2022/05/22 04:06:15;;;;;;;5.38;4.15;;;15.50;1.00;;;;;;7363978;19;20022;-60
2022/05/22 04:08:48;;;;;;;6.70;3.47;;;15.80;1.00;;;;;;7386724;19;20070;-61
2022/05/22 04:11:20;;;;;;;4.05;3.63;;;16.30;1.00;;;;;;7356964;19;20176;-61
2022/05/22 04:13:50;;;;;;;4.78;3.78;;;16.50;1.00;;;;;;7361859;19;20082;-61
2022/05/22 04:16:20;;;;;;;6.05;3.65;;;16.60;1.00;;;;;;7364079;19;20010;-61
2022/05/22 04:18:50;;;;;;;4.65;3.50;;;16.30;1.00;;;;;;7362574;19;20392;-61
2022/05/22 04:21:20;;;;;;;5.30;3.88;;;16.60;1.00;;;;;;7354938;19;20498;-61
2022/05/22 04:26:35;;;;;;;7.43;3.92;;;17.50;1.00;;;;;;7364589;19;20006;-61
2022/05/22 04:29:05;;;;;;;4.72;3.25;;;18.20;1.00;;;;;;7363663;19;20358;-61
2022/05/22 04:31:35;;;;;;;4.68;3.10;;;18.00;1.00;;;;;;7356073;19;20007;-61
2022/05/22 04:34:05;;;;;;;5.45;3.80;;;18.30;1.00;;;;;;7368222;19;20013;-61
2022/05/22 04:36:35;;;;;;;6.47;3.60;;;18.00;1.00;;;;;;7372620;19;20086;-61
2022/05/22 04:39:07;;;;;;;5.07;3.47;;;17.40;1.00;;;;;;7370977;19;20530;-61
2022/05/22 04:41:37;;;;;;;4.63;3.28;;;17.20;1.00;;;;;;7382978;19;20019;-61
2022/05/22 04:44:07;;;;;;;7.78;3.85;;;16.20;1.00;;;;;;7368902;19;20094;-61
2022/05/22 04:46:37;;;;;;;5.65;3.28;;;16.60;1.00;;;;;;7371793;19;20019;-62
2022/05/22 04:49:07;;;;;;;4.90;3.47;;;17.70;1.00;;;;;;7370223;19;20014;-61
2022/05/22 04:51:37;;;;;;;5.00;2.95;;;18.20;1.00;;;;;;7362751;19;20473;-60
2022/05/22 04:54:12;;;;;;;4.20;3.40;;;18.60;1.00;;;;;;7368261;19;20384;-60
2022/05/22 04:56:42;;;;;;;4.95;3.15;;;17.00;1.00;;;;;;7392825;19;20027;-61
2022/05/22 04:59:12;;;;;;;6.00;3.08;;;17.70;1.00;;;;;;7370664;19;20009;-61
2022/05/22 05:01:42;;;;;;;8.63;3.70;;;16.80;1.00;;;;;;7361907;19;20520;-61
2022/05/22 05:04:13;;;;;;;5.38;3.60;;;16.30;1.00;;;;;;7369027;19;20569;-61
2022/05/22 05:06:43;;;;;;;4.95;3.30;;;17.30;1.00;;;;;;7371259;19;20010;-61
2022/05/22 05:09:15;;;;;;;4.57;3.17;;;17.20;1.00;;;;;;7370886;19;20529;-61
2022/05/22 05:11:45;;;;;;;5.22;3.20;;;18.10;1.00;;;;;;7382642;19;20031;-61
2022/05/22 05:14:15;;;;;;;4.78;3.30;;;18.40;1.00;;;;;;7367313;19;20490;-61
2022/05/22 05:16:45;;;;;;;5.78;3.08;;;18.70;1.00;;;;;;7370009;19;20015;-60
2022/05/22 05:19:15;;;;;;;4.30;3.15;;;18.70;1.00;;;;;;7370496;19;20018;-61
2022/05/22 05:21:49;;;;;;;5.28;3.55;;;20.20;1.00;;;;;;7360983;19;20014;-61
2022/05/22 05:24:22;;;;;;;6.28;3.53;;;20.00;1.00;;;;;;7368543;19;20007;-61
2022/05/22 05:26:54;;;;;;;6.13;3.03;;;20.70;1.00;;;;;;7391555;19;20031;-60
2022/05/22 05:29:44;;;;;;;3.28;2.97;;;20.90;1.00;;;;;;7370313;19;20484;-60
2022/05/22 05:32:14;;;;;;;5.57;3.15;;;19.90;1.00;;;;;;7361576;19;20043;-61
2022/05/22 05:34:44;;;;;;;5.60;3.22;;;20.00;1.00;;;;;;7366611;19;20011;-61
2022/05/22 05:37:13;;;;;;;5.85;3.03;;;20.30;1.00;;;;;;7370044;19;20025;-61
2022/05/22 05:39:46;;;;;;;4.90;3.05;;;20.30;1.00;;;;;;7369381;19;20018;-61
2022/05/22 05:42:16;;;;;;;3.97;2.70;;;21.00;1.00;;;;;;7359582;19;20040;-61
2022/05/22 05:44:46;;;;;;;7.95;3.38;;;20.40;1.00;;;;;;7387000;19;20014;-61
2022/05/22 05:47:16;;;;;;;3.10;2.63;;;20.00;1.00;;;;;;7369285;19;20007;-61
2022/05/22 05:49:46;;;;;;;3.92;2.85;;;18.80;1.00;;;;;;7368328;19;20002;-61
2022/05/22 05:52:16;;;;;;;3.75;3.15;;;18.60;1.00;;;;;;7360901;19;20014;-61
2022/05/22 05:55:05;;;;;;;5.03;2.60;;;19.10;1.00;;;;;;7366507;19;20021;-60
2022/05/22 05:57:35;;;;;;;3.03;2.47;;;17.70;1.00;;;;;;7369343;19;20474;-61
2022/05/22 06:00:08;;;;;;;4.55;2.75;;;16.60;1.00;;;;;;7368120;19;20377;-61
2022/05/22 06:02:38;;;;;;;3.72;2.70;;;16.60;1.00;;;;;;7380231;19;20038;-61
2022/05/22 06:05:09;;;;;;;4.88;3.58;;;17.20;1.00;;;;;;7365990;19;20095;-61
2022/05/22 06:07:39;;;;;;;3.40;2.75;;;17.70;1.00;;;;;;7369055;19;20082;-61
2022/05/22 06:10:14;;;;;;;4.82;2.60;;;18.70;1.00;;;;;;7367830;19;20014;-61
2022/05/22 06:12:44;;;;;;;4.65;2.30;;;19.00;1.00;;;;;;7361279;19;20022;-61
2022/05/22 06:15:14;;;;;;;3.70;2.75;;;19.00;1.00;;;;;;7365917;19;20073;-61
2022/05/22 06:17:46;;;;;;;3.28;2.90;;;18.00;1.00;;;;;;7390644;19;20093;-61
2022/05/22 06:20:20;;;;;;;5.95;2.83;;;18.60;1.00;;;;;;7368700;19;20007;-61
2022/05/22 06:22:50;;;;;;;4.78;2.50;;;19.20;1.00;;;;;;7360268;19;20115;-61
2022/05/22 06:25:22;;;;;;;5.65;2.70;;;18.60;1.00;;;;;;7364924;19;21480;-60
2022/05/22 06:27:52;;;;;;;2.80;2.50;;;19.40;1.00;;;;;;7368666;19;20373;-60
2022/05/22 06:30:24;;;;;;;3.53;2.72;;;19.80;1.00;;;;;;7368312;19;20139;-60
2022/05/22 06:32:54;;;;;;;7.07;2.90;;;18.70;1.00;;;;;;7383443;19;20011;-60
2022/05/22 06:35:24;;;;;;;3.38;2.70;;;18.50;1.00;;;;;;7364598;19;20006;-60
2022/05/22 06:37:54;;;;;;;2.70;2.35;;;18.80;1.00;;;;;;7367218;19;20089;-60
2022/05/22 06:40:24;;;;;;;5.57;2.67;;;18.50;1.00;;;;;;7366988;19;20027;-61
2022/05/22 06:42:53;;;;;;;2.60;2.40;;;17.50;1.00;;;;;;7360564;19;20105;-60
2022/05/22 06:45:25;;;;;;;4.18;2.50;;;17.30;1.00;;;;;;7365517;19;20800;-61
2022/05/22 06:47:55;;;;;;;3.85;2.83;;;17.30;1.00;;;;;;7388329;19;20085;-61
2022/05/22 06:50:27;;;;;;;4.43;2.60;;;17.70;1.00;;;;;;7365157;19;20041;-61
2022/05/22 06:52:56;;;;;;;6.97;2.75;;;17.80;1.00;;;;;;7361027;19;20503;-60
2022/05/22 06:55:29;;;;;;;4.18;2.30;;;17.00;1.00;;;;;;7364652;19;20018;-60
2022/05/22 06:58:00;;;;;;;6.80;3.00;;;17.60;1.00;;;;;;7365289;19;20078;-61
2022/05/22 07:00:30;;;;;;;4.75;2.92;;;18.00;1.00;;;;;;7365301;19;20705;-60
2022/05/22 07:03:00;;;;;;;3.97;2.25;;;18.10;1.00;;;;;;7359399;19;20022;-62
2022/05/22 07:05:30;;;;;;;3.60;2.75;;;18.20;1.00;;;;;;7385127;19;20015;-61
2022/05/22 07:08:00;;;;;;;4.57;2.63;;;18.30;1.00;;;;;;7365517;19;20073;-61
2022/05/22 07:13:20;;;;;;;5.80;2.60;;;18.50;1.00;;;;;;7365807;19;20441;-60
2022/05/22 07:15:59;;;;;;;3.33;2.72;;;18.80;1.00;;;;;;7365628;19;20012;-62
2022/05/22 07:18:49;;;;;;;3.40;2.47;;;18.90;1.00;;;;;;7366688;19;20017;-60
2022/05/22 07:21:19;;;;;;;4.03;2.70;;;18.20;1.00;;;;;;7358800;19;20447;-60
2022/05/22 07:23:49;;;;;;;4.30;2.60;;;18.40;1.00;;;;;;7384274;19;20093;-60
2022/05/22 07:26:24;;;;;;;5.22;2.30;;;18.70;1.00;;;;;;7366665;19;20077;-61
2022/05/22 07:28:54;;;;;;;3.38;2.45;;;18.70;1.00;;;;;;7366125;19;20352;-61
2022/05/22 07:31:26;;;;;;;2.75;2.22;;;18.80;1.00;;;;;;7359130;19;20089;-61
2022/05/22 07:33:56;;;;;;;4.60;2.40;;;18.80;1.00;;;;;;7363411;19;20006;-62
2022/05/22 07:36:26;;;;;;;2.42;2.00;;;18.70;1.00;;;;;;7366383;19;20090;-60
2022/05/22 07:38:56;;;;;;;4.47;2.60;;;19.00;1.00;;;;;;7387272;19;20031;-60
2022/05/22 07:41:29;;;;;;;5.10;2.38;;;19.70;1.00;;;;;;7357719;19;20462;-60
2022/05/22 07:44:00;;;;;;;4.23;2.10;;;19.80;1.00;;;;;;7362590;19;20379;-62
2022/05/22 07:46:30;;;;;;;4.35;2.17;;;19.80;1.00;;;;;;7365046;19;20015;-61
2022/05/22 07:49:00;;;;;;;3.67;1.92;;;20.10;1.00;;;;;;7365984;19;20015;-61
2022/05/22 07:51:30;;;;;;;3.65;2.22;;;20.50;1.00;;;;;;7358201;19;20063;-61
2022/05/22 07:54:00;;;;;;;3.20;2.15;;;20.50;1.00;;;;;;7362500;19;20091;-62
2022/05/22 07:56:32;;;;;;;4.10;2.15;;;20.10;1.00;;;;;;7387236;19;20026;-61
2022/05/22 07:59:02;;;;;;;4.38;1.73;;;20.40;1.00;;;;;;7364318;19;20029;-61
2022/05/22 08:01:32;;;;;;;3.83;1.67;;;20.30;1.00;;;;;;7356034;19;20111;-61
2022/05/22 08:04:02;;;;;;;2.88;1.63;;;20.40;1.00;;;;;;7362794;19;20035;-61
2022/05/22 08:06:33;;;;;;;3.95;1.77;;;20.80;1.00;;;;;;7364493;19;20022;-62
2022/05/22 08:09:03;;;;;;;5.88;2.17;;;20.80;1.00;;;;;;7370518;19;20014;-62
2022/05/22 08:11:36;;;;;;;3.78;1.75;;;20.40;1.00;;;;;;7384861;19;20381;-60
2022/05/22 08:14:06;;;;;;;2.45;1.80;;;20.80;1.00;;;;;;7369118;19;20341;-61
2022/05/22 08:16:36;;;;;;;2.90;2.03;;;21.00;1.00;;;;;;7372154;19;20478;-60
2022/05/22 08:19:06;;;;;;;3.22;2.05;;;20.90;1.00;;;;;;7371805;19;20006;-60
2022/05/22 08:21:36;;;;;;;4.82;1.70;;;21.00;1.00;;;;;;7364905;19;20464;-60
2022/05/22 08:24:06;;;;;;;5.90;2.13;;;21.10;1.00;;;;;;7368989;19;20027;-60
2022/05/22 08:26:39;;;;;;;2.55;2.10;;;21.50;1.00;;;;;;7393058;19;20020;-61
2022/05/22 08:29:09;;;;;;;4.57;1.70;;;21.10;1.00;;;;;;7371808;19;20019;-61
2022/05/22 08:31:39;;;;;;;2.25;1.63;;;21.50;1.00;;;;;;7363735;19;20021;-61
2022/05/22 08:34:09;;;;;;;4.07;1.92;;;21.50;1.00;;;;;;7368968;19;20094;-61
2022/05/22 08:36:39;;;;;;;4.55;1.80;;;20.70;1.00;;;;;;7369970;19;20503;-60
2022/05/22 08:39:09;;;;;;;1.92;1.77;;;21.10;1.00;;;;;;7371619;19;20420;-61
2022/05/22 08:41:46;;;;;;;4.85;1.92;;;20.80;1.00;;;;;;7385817;19;20078;-61
2022/05/22 08:44:19;;;;;;;3.80;2.20;;;21.30;1.00;;;;;;7367755;19;20821;-61
2022/05/22 08:47:01;;;;;;;3.10;2.10;;;21.10;1.00;;;;;;7370540;19;20511;-61
2022/05/22 08:49:34;;;;;;;4.10;1.70;;;20.90;1.00;;;;;;7371275;19;20013;-61
2022/05/22 08:52:12;;;;;;;4.23;2.30;;;21.20;1.00;;;;;;7363132;19;20467;-62
2022/05/22 08:54:45;;;;;;;3.92;2.40;;;20.40;1.00;;;;;;7368538;19;20031;-61
2022/05/22 09:00:12;;;;;;;5.57;2.30;;;21.00;1.00;;;;;;7370345;19;20044;-61
2022/05/22 09:02:48;;;;;;;5.85;2.30;;;20.50;1.00;;;;;;7383835;19;20091;-61
2022/05/22 09:05:22;;;;;;;3.17;2.22;;;21.30;1.00;;;;;;7367037;19;20038;-61
2022/05/22 09:07:58;;;;;;;2.40;1.77;;;21.20;1.00;;;;;;7369810;19;20446;-61
2022/05/22 09:10:40;;;;;;;3.67;1.80;;;21.50;1.00;;;;;;7369780;19;20036;-60
2022/05/22 09:13:23;;;;;;;3.58;1.90;;;21.00;1.00;;;;;;7368039;19;20130;-61
2022/05/22 09:16:15;;;;;;;2.53;1.90;;;20.90;1.00;;;;;;7368968;19;20776;-61
2022/05/22 09:18:50;;;;;;;2.08;1.50;;;20.70;1.00;;;;;;7369429;19;20090;-61
2022/05/22 09:21:32;;;;;;;2.17;1.77;;;21.20;1.00;;;;;;7362319;19;20143;-61
2022/05/22 09:24:04;;;;;;;3.28;2.00;;;21.00;1.00;;;;;;7367036;19;20090;-62
2022/05/22 09:26:55;;;;;;;2.38;1.70;;;21.40;1.00;;;;;;7391544;19;20050;-63
2022/05/22 09:29:59;;;;;;;3.65;1.83;;;22.10;1.00;;;;;;7369523;19;20011;-61
2022/05/22 09:32:47;;;;;;;4.28;1.58;;;22.50;1.00;;;;;;7361100;19;20029;-61
2022/05/22 09:35:29;;;;;;;3.05;1.52;;;21.90;1.00;;;;;;7366127;19;20074;-60
2022/05/22 09:38:10;;;;;;;4.25;1.52;;;21.90;1.00;;;;;;7368164;19;20006;-60
2022/05/22 09:40:46;;;;;;;7.82;1.65;;;22.20;1.00;;;;;;7364249;19;20120;-61
2022/05/22 09:43:47;;;;;;;3.90;1.65;;;21.80;1.00;;;;;;7365512;19;20010;-60
2022/05/22 09:46:35;;;;;;;3.13;1.80;;;22.00;1.00;;;;;;7366149;19;20033;-61
2022/05/22 09:49:29;;;;;;;3.63;1.48;;;22.30;1.00;;;;;;7368504;19;20015;-61
2022/05/22 09:52:10;;;;;;;2.80;1.50;;;23.00;1.00;;;;;;7361048;19;20036;-61
2022/05/22 09:54:54;;;;;;;2.13;1.55;;;22.70;1.00;;;;;;7366558;19;20014;-60
2022/05/22 09:58:09;;;;;;;7.72;2.55;;;22.00;1.00;;;;;;7368485;19;20098;-62
2022/05/22 10:00:44;;;;;;;2.50;1.48;;;22.30;1.00;;;;;;7361378;19;20018;-61
2022/05/22 10:03:22;;;;;;;3.25;1.75;;;22.50;1.00;;;;;;7364579;19;20490;-62
2022/05/22 10:06:01;;;;;;;2.15;1.60;;;22.00;1.00;;;;;;7386238;19;20014;-60
2022/05/22 10:08:44;;;;;;;2.65;1.83;;;22.10;1.00;;;;;;7367028;19;20407;-61
2022/05/22 10:11:22;;;;;;;4.43;2.00;;;21.60;1.00;;;;;;7359287;19;20360;-62
2022/05/22 10:14:11;;;;;;;3.85;2.13;;;22.00;1.00;;;;;;7364115;19;20495;-61
2022/05/22 10:16:50;;;;;;;2.65;1.55;;;22.10;1.00;;;;;;7365328;19;20312;-61
2022/05/22 10:19:36;;;;;;;3.78;1.48;;;22.40;1.00;;;;;;7365480;19;20018;-61
2022/05/22 10:22:16;;;;;;;3.38;1.23;;;22.60;1.00;;;;;;7358918;19;20077;-62
2022/05/22 10:24:58;;;;;;;3.55;1.70;;;22.30;1.00;;;;;;7364638;19;20006;-61
2022/05/22 10:27:46;;;;;;;2.85;1.50;;;22.80;1.00;;;;;;7367704;19;20511;-62
2022/05/22 10:30:21;;;;;;;2.60;1.83;;;22.40;1.00;;;;;;7366612;19;20550;-61
2022/05/22 10:32:56;;;;;;;2.83;1.40;;;22.40;1.00;;;;;;7382599;19;20390;-61
2022/05/22 10:35:39;;;;;;;2.75;1.30;;;22.40;1.00;;;;;;7363896;19;20006;-62
2022/05/22 10:38:19;;;;;;;2.33;1.50;;;22.30;1.00;;;;;;7365633;19;20028;-61
2022/05/22 10:43:37;;;;;;;2.47;1.38;;;22.80;1.00;;;;;;7364500;19;20440;-61
2022/05/22 10:46:07;;;;;;;2.83;1.35;;;22.30;1.00;;;;;;7365230;19;20030;-60
2022/05/22 10:48:48;;;;;;;4.93;1.35;;;22.90;1.00;;;;;;7364703;19;20010;-61
2022/05/22 10:51:28;;;;;;;2.60;1.20;;;22.40;1.00;;;;;;7358494;19;20087;-61
2022/05/22 10:54:00;;;;;;;2.13;1.50;;;22.40;1.00;;;;;;7383350;19;20027;-62
2022/05/22 10:56:32;;;;;;;2.97;1.30;;;22.90;1.00;;;;;;7387788;19;20096;-62
2022/05/22 10:59:07;;;;;;;2.78;1.40;;;22.80;1.00;;;;;;7364710;19;20487;-60
2022/05/22 11:01:42;;;;;;;2.70;1.42;;;23.10;1.00;;;;;;7359158;19;20011;-61
2022/05/22 11:04:13;;;;;;;;;;;22.80;1.00;;;;;;7364581;19;20337;-62
2022/05/22 11:06:55;;;;;;;2.67;1.10;;;23.00;1.00;;;;;;7365159;19;19974;-61
2022/05/22 11:09:27;;;;;;;2.10;1.25;;;23.20;1.00;;;;;;7365995;19;20011;-61
2022/05/22 11:12:06;;;;;;;6.35;1.20;;;23.00;1.00;;;;;;7384608;19;20031;-61
2022/05/22 11:14:36;;;;;;;4.53;1.23;;;22.80;1.00;;;;;;7362239;19;20010;-62
2022/05/22 11:17:11;;;;;;;3.13;1.42;;;22.90;1.00;;;;;;7365693;19;20077;-62
2022/05/22 11:19:43;;;;;;;4.82;1.55;;;22.80;1.00;;;;;;7366392;19;20014;-61
2022/05/22 11:22:31;;;;;;;2.38;1.45;;;23.00;1.00;;;;;;7358553;19;20015;-61
2022/05/22 11:25:14;;;;;;;3.30;1.00;;;22.70;1.00;;;;;;7363619;19;20037;-60
2022/05/22 11:28:00;;;;;;;4.53;1.20;;;22.90;1.00;;;;;;7365744;19;20003;-61
2022/05/22 11:30:34;;;;;;;;;;;23.00;1.00;;;;;;7365340;19;20773;-61
2022/05/22 11:33:21;;;;;;;2.30;1.42;;;23.00;1.00;;;;;;7362038;19;20318;-61
2022/05/22 11:36:00;;;;;;;2.20;1.38;;;23.10;1.00;;;;;;7384035;19;20377;-60
2022/05/22 11:38:48;;;;;;;2.58;1.40;;;23.10;1.00;;;;;;7366295;19;20014;-62
2022/05/22 11:41:27;;;;;;;2.00;1.10;;;22.90;1.00;;;;;;7360285;19;20123;-61
2022/05/22 11:44:33;;;;;;;3.63;1.60;;;23.20;1.00;;;;;;7359378;19;20006;-60
2022/05/22 11:47:14;;;;;;;3.97;1.65;;;23.20;1.00;;;;;;7363304;19;20057;-61
2022/05/22 11:49:54;;;;;;;1.88;1.20;;;23.50;1.00;;;;;;7365976;19;20006;-62
2022/05/22 11:55:29;;;;;;;2.00;1.40;;;23.80;1.00;;;;;;7363027;19;20090;-61
2022/05/22 11:58:13;;;;;;;1.83;1.15;;;23.60;1.00;;;;;;7364566;19;20106;-62
2022/05/22 12:00:48;;;;;;;1.58;1.10;;;23.50;1.00;;;;;;7360333;19;20021;-61
2022/05/22 12:03:46;;;;;;;3.78;1.13;;;24.20;1.00;;;;;;7361358;19;20010;-61
2022/05/22 12:06:27;;;;;;;2.42;1.38;;;24.10;1.00;;;;;;7363759;19;20469;-60
2022/05/22 12:09:17;;;;;;;3.50;1.23;;;24.50;1.00;;;;;;7386610;19;20058;-61
2022/05/22 12:11:59;;;;;;;1.85;1.20;;;24.20;1.00;;;;;;7359216;19;20024;-61
2022/05/22 12:14:38;;;;;;;2.03;1.10;;;24.50;1.00;;;;;;7361003;19;20517;-61
2022/05/22 12:17:17;;;;;;;1.95;1.00;;;24.40;1.00;;;;;;7363647;19;20031;-61
2022/05/22 12:19:54;;;;;;;1.88;1.10;;;24.00;1.00;;;;;;7365135;19;20015;-61
2022/05/22 12:23:07;;;;;;;1.20;1.10;;;24.30;1.00;;;;;;7356145;19;20511;-61
2022/05/22 12:25:20;;;;;;;2.70;1.10;;;24.10;1.00;;;;;;7362574;19;20085;-61
2022/05/22 12:27:54;;;;;;;1.63;1.07;;;23.80;1.00;;;;;;7363496;19;20089;-62
2022/05/22 12:30:28;;;;;;;1.33;0.80;;;24.60;1.00;;;;;;7363130;19;20491;-62
2022/05/22 12:33:00;;;;;;;1.20;0.80;;;23.90;1.00;;;;;;7378583;19;20068;-59
2022/05/22 12:35:31;;;;;;;3.03;1.13;;;24.10;1.00;;;;;;7359249;19;20081;-61
2022/05/22 12:38:07;;;;;;;1.50;0.82;;;24.30;1.00;;;;;;7361380;19;20022;-62
2022/05/22 12:40:49;;;;;;;1.35;1.05;;;24.70;1.00;;;;;;7357343;19;20443;-60
2022/05/22 12:43:24;;;;;;;1.40;0.65;;;24.40;1.00;;;;;;7357093;19;20018;-61
2022/05/22 12:45:57;;;;;;;2.00;0.90;;;24.30;1.00;;;;;;7353009;19;20011;-61
2022/05/22 12:48:29;;;;;;;1.35;0.82;;;24.20;1.00;;;;;;7354283;19;20025;-61
2022/05/22 12:51:12;;;;;;;1.88;0.77;;;24.60;1.00;;;;;;7368737;19;20090;-60
2022/05/22 12:53:46;;;;;;;2.47;1.20;;;24.50;1.00;;;;;;7349216;19;20036;-60
2022/05/22 12:56:26;;;;;;;1.95;1.00;;;24.90;1.00;;;;;;7359794;19;20100;-60
2022/05/22 12:59:01;;;;;;;1.52;0.80;;;23.90;1.00;;;;;;7359416;19;20077;-62
2022/05/22 13:01:42;;;;;;;1.45;0.80;;;24.90;1.00;;;;;;7355134;19;20086;-60
2022/05/22 13:04:25;;;;;;;2.30;1.00;;;24.90;1.00;;;;;;7355582;19;20014;-60
2022/05/22 13:07:01;;;;;;;1.30;0.80;;;24.80;1.00;;;;;;7367720;19;20017;-61
2022/05/22 13:09:41;;;;;;;2.13;0.80;;;25.00;1.00;;;;;;7369946;19;20018;-61
2022/05/22 13:12:27;;;;;;;1.38;0.90;;;25.00;1.00;;;;;;7364392;19;20014;-61
2022/05/22 13:15:04;;;;;;;2.45;1.02;;;25.00;1.00;;;;;;7388693;19;20014;-61
2022/05/22 13:17:37;;;;;;;1.48;0.90;;;25.30;1.00;;;;;;7370408;19;20118;-60
2022/05/22 13:20:11;;;;;;;2.47;1.10;;;25.00;1.00;;;;;;7368489;19;20022;-61
2022/05/22 13:22:43;;;;;;;3.88;1.05;;;25.00;1.00;;;;;;7361275;19;20011;-60
2022/05/22 13:25:29;;;;;;;1.35;1.05;;;25.00;1.00;;;;;;7366422;19;20047;-60
2022/05/22 13:27:59;;;;;;;2.45;0.95;;;24.80;1.00;;;;;;7367784;19;20022;-61
2022/05/22 13:30:33;;;;;;;1.20;0.93;;;24.40;1.00;;;;;;7367246;19;20014;-60
2022/05/22 13:33:07;;;;;;;2.17;1.00;;;24.30;1.00;;;;;;7365549;19;20035;-62
2022/05/22 13:35:41;;;;;;;1.88;0.95;;;24.40;1.00;;;;;;7388089;19;20006;-62
2022/05/22 13:38:14;;;;;;;2.03;1.17;;;24.80;1.00;;;;;;7367467;19;20010;-60
2022/05/22 13:40:53;;;;;;;1.73;1.10;;;24.40;1.00;;;;;;7360189;19;20011;-60
2022/05/22 13:44:04;;;;;;;1.20;0.88;;;24.20;1.00;;;;;;7363335;19;20019;-62
2022/05/22 13:47:08;;;;;;;1.08;0.98;;;24.60;1.00;;;;;;7365713;19;20081;-61
2022/05/22 13:52:53;;;;;;;1.63;0.73;;;24.80;1.00;;;;;;7359631;19;20022;-62
2022/05/22 13:55:25;;;;;;;1.88;0.90;;;24.70;1.00;;;;;;7366862;19;20018;-62